createdAt,value
2018-02-25T00:00:28.950Z,6.33
2018-02-25T00:02:55.373Z,6.13
2018-02-25T00:05:21.757Z,6.10
2018-02-25T00:07:48.163Z,7.07
2018-02-25T00:10:14.635Z,7.67
2018-02-25T00:12:41.044Z,7.87
2018-02-25T00:15:07.425Z,7.50
2018-02-25T00:17:33.890Z,8.57
2018-02-25T00:20:00.325Z,8.30
2018-02-25T00:22:28.748Z,8.60
2018-02-25T00:24:55.236Z,9.30
2018-02-25T00:27:21.651Z,11.17
2018-02-25T00:29:48.113Z,8.80
2018-02-25T00:32:14.545Z,8.80
2018-02-25T00:34:41.073Z,7.50
2018-02-25T00:37:07.429Z,6.80
2018-02-25T00:39:33.861Z,6.77
2018-02-25T00:42:00.293Z,7.20
2018-02-25T00:44:26.733Z,7.47
2018-02-25T00:46:53.094Z,7.00
2018-02-25T00:49:19.513Z,6.33
2018-02-25T00:51:45.921Z,8.40
2018-02-25T00:54:12.409Z,7.80
2018-02-25T00:56:38.848Z,7.77
2018-02-25T00:59:05.220Z,9.73
2018-02-25T01:01:31.666Z,9.63
2018-02-25T01:03:58.033Z,9.73
2018-02-25T01:06:24.444Z,8.67
2018-02-25T01:08:50.946Z,7.17
2018-02-25T01:11:17.349Z,7.10
2018-02-25T01:13:43.753Z,7.23
2018-02-25T01:16:10.241Z,7.17
2018-02-25T01:18:36.609Z,7.07
2018-02-25T01:21:02.950Z,8.73
2018-02-25T01:23:29.397Z,8.40
2018-02-25T01:25:55.784Z,9.33
2018-02-25T01:28:22.182Z,8.83
2018-02-25T01:30:48.585Z,8.33
2018-02-25T01:33:15.038Z,7.27
2018-02-25T01:35:41.524Z,7.77
2018-02-25T01:38:07.948Z,6.40
2018-02-25T01:40:34.309Z,7.33
2018-02-25T01:43:00.773Z,6.67
2018-02-25T01:45:27.172Z,6.30
2018-02-25T01:47:53.614Z,6.47
2018-02-25T01:50:20.095Z,5.67
2018-02-25T01:52:46.481Z,6.13
2018-02-25T01:55:12.906Z,6.17
2018-02-25T01:57:39.314Z,6.27
2018-02-25T02:00:05.648Z,5.90
2018-02-25T02:02:32.096Z,6.40
2018-02-25T02:04:58.454Z,6.30
2018-02-25T02:07:24.878Z,6.77
2018-02-25T02:09:51.397Z,6.67
2018-02-25T02:12:17.924Z,6.67
2018-02-25T02:14:44.297Z,6.70
2018-02-25T02:17:10.704Z,6.63
2018-02-25T02:19:37.162Z,7.33
2018-02-25T02:22:03.626Z,6.20
2018-02-25T02:24:30.081Z,6.40
2018-02-25T02:26:56.421Z,6.33
2018-02-25T02:29:23.358Z,6.40
2018-02-25T02:31:49.817Z,6.80
2018-02-25T02:34:16.267Z,6.87
2018-02-25T02:36:42.610Z,7.10
2018-02-25T02:39:09.054Z,7.57
2018-02-25T02:41:35.467Z,7.50
2018-02-25T02:44:01.891Z,7.77
2018-02-25T02:46:28.389Z,7.40
2018-02-25T02:48:54.782Z,7.93
2018-02-25T02:51:21.117Z,8.30
2018-02-25T02:53:47.585Z,7.80
2018-02-25T02:56:14.225Z,8.27
2018-02-25T02:58:40.615Z,8.23
2018-02-25T03:01:07.010Z,7.90
2018-02-25T03:03:33.446Z,8.30
2018-02-25T03:05:59.862Z,8.90
2018-02-25T03:08:26.234Z,9.43
2018-02-25T03:10:52.578Z,8.90
2018-02-25T03:13:19.061Z,9.20
2018-02-25T03:15:45.470Z,8.40
2018-02-25T03:18:11.898Z,9.17
2018-02-25T03:20:38.253Z,10.27
2018-02-25T03:23:04.754Z,9.57
2018-02-25T03:25:31.163Z,9.47
2018-02-25T03:27:57.543Z,11.17
2018-02-25T03:30:23.948Z,12.27
2018-02-25T03:32:50.465Z,12.23
2018-02-25T03:35:16.888Z,13.33
2018-02-25T03:37:43.257Z,12.50
2018-02-25T03:40:09.657Z,13.57
2018-02-25T03:42:36.014Z,12.43
2018-02-25T03:45:02.377Z,12.97
2018-02-25T03:47:28.809Z,13.87
2018-02-25T03:49:55.164Z,13.37
2018-02-25T03:52:21.534Z,13.17
2018-02-25T03:54:48.098Z,13.27
2018-02-25T03:57:14.566Z,13.63
2018-02-25T03:59:40.918Z,13.13
2018-02-25T04:02:07.337Z,14.10
2018-02-25T04:04:33.849Z,14.87
2018-02-25T04:07:00.304Z,15.33
2018-02-25T04:09:26.768Z,15.63
2018-02-25T04:11:53.167Z,15.10
2018-02-25T04:14:19.533Z,15.37
2018-02-25T04:16:45.978Z,17.37
2018-02-25T04:19:12.365Z,15.00
2018-02-25T04:21:38.877Z,15.17
2018-02-25T04:24:05.334Z,15.97
2018-02-25T04:26:31.666Z,15.63
2018-02-25T04:28:58.057Z,15.70
2018-02-25T04:31:24.401Z,16.70
2018-02-25T04:33:50.740Z,16.30
2018-02-25T04:36:17.146Z,16.57
2018-02-25T04:38:43.578Z,14.90
2018-02-25T04:41:10.063Z,16.33
2018-02-25T04:43:36.461Z,15.87
2018-02-25T04:46:02.865Z,16.90
2018-02-25T04:48:29.255Z,16.90
2018-02-25T04:50:55.677Z,15.87
2018-02-25T04:53:22.102Z,16.83
2018-02-25T04:55:48.589Z,17.10
2018-02-25T04:58:14.945Z,15.80
2018-02-25T05:00:41.315Z,15.73
2018-02-25T05:03:07.809Z,16.23
2018-02-25T05:05:34.168Z,16.53
2018-02-25T05:08:00.598Z,16.73
2018-02-25T05:10:27.031Z,18.70
2018-02-25T05:12:53.400Z,17.30
2018-02-25T05:15:19.774Z,17.67
2018-02-25T05:17:46.156Z,18.07
2018-02-25T05:20:12.600Z,18.23
2018-02-25T05:22:39.034Z,17.43
2018-02-25T05:25:05.516Z,17.97
2018-02-25T05:27:32.160Z,17.83
2018-02-25T05:29:58.621Z,17.17
2018-02-25T05:32:25.106Z,17.97
2018-02-25T05:34:51.470Z,16.83
2018-02-25T05:37:17.866Z,16.60
2018-02-25T05:39:44.253Z,18.37
2018-02-25T05:42:10.605Z,16.67
2018-02-25T05:44:37.069Z,17.20
2018-02-25T05:47:03.509Z,18.23
2018-02-25T05:49:29.902Z,18.17
2018-02-25T05:51:56.250Z,18.33
2018-02-25T05:54:22.691Z,19.23
2018-02-25T05:56:49.094Z,17.87
2018-02-25T05:59:15.522Z,19.23
2018-02-25T06:01:41.947Z,19.53
2018-02-25T06:04:08.349Z,19.87
2018-02-25T06:06:34.717Z,18.23
2018-02-25T06:09:01.170Z,18.07
2018-02-25T06:11:27.528Z,18.87
2018-02-25T06:13:53.941Z,18.60
2018-02-25T06:16:20.354Z,18.47
2018-02-25T06:18:46.681Z,21.50
2018-02-25T06:21:13.066Z,25.83
2018-02-25T06:23:39.462Z,19.80
2018-02-25T06:26:05.860Z,22.03
2018-02-25T06:28:32.277Z,20.77
2018-02-25T06:30:58.716Z,20.47
2018-02-25T06:33:25.198Z,18.17
2018-02-25T06:35:51.606Z,17.67
2018-02-25T06:38:18.022Z,17.80
2018-02-25T06:40:44.427Z,15.87
2018-02-25T06:43:10.856Z,15.00
2018-02-25T06:45:37.284Z,16.90
2018-02-25T06:48:03.641Z,15.97
2018-02-25T06:50:29.977Z,16.17
2018-02-25T06:52:56.370Z,14.40
2018-02-25T06:55:22.740Z,14.53
2018-02-25T06:57:49.091Z,14.43
2018-02-25T07:00:15.501Z,17.03
2018-02-25T07:02:41.919Z,16.57
2018-02-25T07:05:08.265Z,14.93
2018-02-25T07:07:34.620Z,14.33
2018-02-25T07:10:01.184Z,16.50
2018-02-25T07:12:27.874Z,16.77
2018-02-25T07:14:54.213Z,17.07
2018-02-25T07:17:20.618Z,17.83
2018-02-25T07:19:46.995Z,19.97
2018-02-25T07:22:13.370Z,19.47
2018-02-25T07:24:39.777Z,20.03
2018-02-25T07:27:06.165Z,20.30
2018-02-25T07:29:32.541Z,19.10
2018-02-25T07:31:59.041Z,17.73
2018-02-25T07:34:25.382Z,18.00
2018-02-25T07:36:51.868Z,17.33
2018-02-25T07:39:18.275Z,17.17
2018-02-25T07:41:44.624Z,18.43
2018-02-25T07:44:11.021Z,18.53
2018-02-25T07:46:37.534Z,19.87
2018-02-25T07:49:03.990Z,19.90
2018-02-25T07:51:30.489Z,17.40
2018-02-25T07:53:56.881Z,17.93
2018-02-25T07:56:23.285Z,17.40
2018-02-25T07:58:49.652Z,16.43
2018-02-25T08:01:16.102Z,16.70
2018-02-25T08:03:42.500Z,16.20
2018-02-25T08:06:08.933Z,17.70
2018-02-25T08:08:35.369Z,17.23
2018-02-25T08:11:01.708Z,17.53
2018-02-25T08:13:28.065Z,15.77
2018-02-25T08:15:54.461Z,16.53
2018-02-25T08:18:20.822Z,16.53
2018-02-25T08:20:47.208Z,16.67
2018-02-25T08:23:13.739Z,20.40
2018-02-25T08:25:40.123Z,16.97
2018-02-25T08:28:06.518Z,16.10
2018-02-25T08:30:33.014Z,18.57
2018-02-25T08:32:59.386Z,18.23
2018-02-25T08:35:26.244Z,18.63
2018-02-25T08:37:52.682Z,18.20
2018-02-25T08:40:19.058Z,23.03
2018-02-25T08:42:45.486Z,20.13
2018-02-25T08:45:11.950Z,20.87
2018-02-25T08:47:38.348Z,20.93
2018-02-25T08:50:04.937Z,21.07
2018-02-25T08:52:31.385Z,20.63
2018-02-25T08:54:57.721Z,24.30
2018-02-25T08:57:24.133Z,29.13
2018-02-25T08:59:50.522Z,27.70
2018-02-25T09:02:16.925Z,23.33
2018-02-25T09:04:43.415Z,20.07
2018-02-25T09:07:09.774Z,21.77
2018-02-25T09:09:36.117Z,22.53
2018-02-25T09:12:02.530Z,21.50
2018-02-25T09:14:29.106Z,22.23
2018-02-25T09:16:55.650Z,23.00
2018-02-25T09:19:22.013Z,24.53
2018-02-25T09:22:00.297Z,26.17
2018-02-25T09:24:46.758Z,29.80
2018-02-25T09:27:28.112Z,26.07
2018-02-25T09:29:57.852Z,23.23
2018-02-25T09:32:37.260Z,23.40
2018-02-25T09:35:05.263Z,23.63
2018-02-25T09:37:31.619Z,24.03
2018-02-25T09:40:02.733Z,20.07
2018-02-25T09:42:35.917Z,21.23
2018-02-25T09:45:08.533Z,21.67
2018-02-25T09:47:42.401Z,21.67
2018-02-25T09:50:10.130Z,19.57
2018-02-25T09:52:36.701Z,21.47
2018-02-25T09:55:03.398Z,23.40
2018-02-25T09:57:31.754Z,24.73
2018-02-25T09:59:59.229Z,24.40
2018-02-25T10:02:25.589Z,23.53
2018-02-25T10:04:52.006Z,23.53
2018-02-25T10:07:18.438Z,25.97
2018-02-25T10:09:44.826Z,25.60
2018-02-25T10:12:11.270Z,25.17
2018-02-25T10:14:37.623Z,25.30
2018-02-25T10:17:03.965Z,24.70
2018-02-25T10:19:30.337Z,25.17
2018-02-25T10:21:56.727Z,26.13
2018-02-25T10:24:23.102Z,23.63
2018-02-25T10:26:49.500Z,22.37
2018-02-25T10:29:15.873Z,20.77
2018-02-25T10:31:42.253Z,21.67
2018-02-25T10:34:08.618Z,23.50
2018-02-25T10:36:35.017Z,26.20
2018-02-25T10:39:01.428Z,22.13
2018-02-25T10:41:27.846Z,19.17
2018-02-25T10:43:54.226Z,21.00
2018-02-25T10:46:20.594Z,34.27
2018-02-25T10:48:46.988Z,25.10
2018-02-25T10:51:13.349Z,24.33
2018-02-25T10:53:39.716Z,23.53
2018-02-25T10:56:06.242Z,21.37
2018-02-25T10:58:32.673Z,23.30
2018-02-25T11:01:05.034Z,22.33
2018-02-25T11:03:31.494Z,21.00
2018-02-25T11:05:57.881Z,33.90
2018-02-25T11:08:24.244Z,28.10
2018-02-25T11:10:50.803Z,28.43
2018-02-25T11:13:17.254Z,31.13
2018-02-25T11:15:43.626Z,29.67
2018-02-25T11:18:09.989Z,23.20
2018-02-25T11:20:36.430Z,23.20
2018-02-25T11:23:02.842Z,22.20
2018-02-25T11:25:29.253Z,21.60
2018-02-25T11:27:55.705Z,29.27
2018-02-25T11:30:22.078Z,29.67
2018-02-25T11:32:48.464Z,34.33
2018-02-25T11:35:14.873Z,29.20
2018-02-25T11:37:41.323Z,24.60
2018-02-25T11:40:07.799Z,26.40
2018-02-25T11:42:34.154Z,22.53
2018-02-25T11:45:00.641Z,19.97
2018-02-25T11:47:27.062Z,20.23
2018-02-25T11:49:53.417Z,21.93
2018-02-25T11:52:19.773Z,22.07
2018-02-25T11:54:46.189Z,23.60
2018-02-25T11:57:12.574Z,23.50
2018-02-25T11:59:38.934Z,24.90
2018-02-25T12:02:05.392Z,24.73
2018-02-25T12:04:31.806Z,23.50
2018-02-25T12:06:58.222Z,23.80
2018-02-25T12:09:24.765Z,23.67
2018-02-25T12:11:51.322Z,24.40
2018-02-25T12:14:17.716Z,25.07
2018-02-25T12:16:44.111Z,21.50
2018-02-25T12:19:10.469Z,26.93
2018-02-25T12:21:36.814Z,30.07
2018-02-25T12:24:03.382Z,21.77
2018-02-25T12:26:29.762Z,24.20
2018-02-25T12:28:56.123Z,24.27
2018-02-25T12:31:22.562Z,23.77
2018-02-25T12:33:48.893Z,25.47
2018-02-25T12:36:15.283Z,21.67
2018-02-25T12:38:42.037Z,23.80
2018-02-25T12:41:08.440Z,23.27
2018-02-25T12:43:34.856Z,20.77
2018-02-25T12:46:01.266Z,24.03
2018-02-25T12:48:27.640Z,22.93
2018-02-25T12:50:54.025Z,18.83
2018-02-25T12:53:20.493Z,19.20
2018-02-25T12:55:46.838Z,21.67
2018-02-25T12:58:13.248Z,20.53
2018-02-25T13:00:39.707Z,20.10
2018-02-25T13:03:06.064Z,20.47
2018-02-25T13:05:32.461Z,19.70
2018-02-25T13:07:58.797Z,21.23
2018-02-25T13:10:25.225Z,18.03
2018-02-25T13:12:51.664Z,20.83
2018-02-25T13:15:18.118Z,20.43
2018-02-25T13:17:44.448Z,19.43
2018-02-25T13:20:10.858Z,20.70
2018-02-25T13:22:37.233Z,21.23
2018-02-25T13:25:03.706Z,21.87
2018-02-25T13:27:30.053Z,21.77
2018-02-25T13:29:56.465Z,24.13
2018-02-25T13:32:22.926Z,21.90
2018-02-25T13:34:49.379Z,22.27
2018-02-25T13:37:15.797Z,24.10
2018-02-25T13:39:42.126Z,23.00
2018-02-25T13:42:08.494Z,19.20
2018-02-25T13:44:34.917Z,20.07
2018-02-25T13:47:01.294Z,24.17
2018-02-25T13:49:27.691Z,28.83
2018-02-25T13:51:54.242Z,26.73
2018-02-25T13:54:20.781Z,22.03
2018-02-25T13:56:47.150Z,24.67
2018-02-25T13:59:13.658Z,23.73
2018-02-25T14:01:40.126Z,22.40
2018-02-25T14:04:06.470Z,22.43
2018-02-25T14:06:32.809Z,22.80
2018-02-25T14:08:59.165Z,29.27
2018-02-25T14:11:32.600Z,25.70
2018-02-25T14:13:58.945Z,24.47
2018-02-25T14:16:25.291Z,21.67
2018-02-25T14:18:51.839Z,23.13
2018-02-25T14:21:18.266Z,24.30
2018-02-25T14:23:44.678Z,25.17
2018-02-25T14:26:11.137Z,23.27
2018-02-25T14:28:37.498Z,21.30
2018-02-25T14:31:03.861Z,22.17
2018-02-25T14:33:30.213Z,22.17
2018-02-25T14:35:56.594Z,23.67
2018-02-25T14:38:22.933Z,22.33
2018-02-25T14:40:49.269Z,26.27
2018-02-25T14:43:15.788Z,30.77
2018-02-25T14:45:42.213Z,27.33
2018-02-25T14:48:08.598Z,32.00
2018-02-25T14:50:35.029Z,27.10
2018-02-25T14:53:01.442Z,23.13
2018-02-25T14:55:27.823Z,26.63
2018-02-25T14:57:54.185Z,26.27
2018-02-25T15:00:20.594Z,28.10
2018-02-25T15:02:47.002Z,27.00
2018-02-25T15:05:13.430Z,24.80
2018-02-25T15:07:39.809Z,23.53
2018-02-25T15:10:06.459Z,24.47
2018-02-25T15:12:32.934Z,25.57
2018-02-25T15:14:59.341Z,26.03
2018-02-25T15:17:25.698Z,23.13
2018-02-25T15:19:52.114Z,23.63
2018-02-25T15:22:18.505Z,25.10
2018-02-25T15:24:44.895Z,32.23
2018-02-25T15:27:11.293Z,29.03
2018-02-25T15:29:37.690Z,25.47
2018-02-25T15:32:04.045Z,24.40
2018-02-25T15:34:30.411Z,26.60
2018-02-25T15:36:56.844Z,28.90
2018-02-25T15:39:23.255Z,30.70
2018-02-25T15:41:49.660Z,27.80
2018-02-25T15:44:16.101Z,23.10
2018-02-25T15:46:42.534Z,24.93
2018-02-25T15:49:08.926Z,23.77
2018-02-25T15:51:35.472Z,24.67
2018-02-25T15:54:01.842Z,23.90
2018-02-25T15:56:28.346Z,27.87
2018-02-25T15:58:54.777Z,27.13
2018-02-25T16:01:21.162Z,28.57
2018-02-25T16:03:47.566Z,26.57
2018-02-25T16:06:14.907Z,25.97
2018-02-25T16:08:41.261Z,24.73
2018-02-25T16:11:07.716Z,23.80
2018-02-25T16:13:34.150Z,23.50
2018-02-25T16:16:00.536Z,24.47
2018-02-25T16:18:26.966Z,25.80
2018-02-25T16:20:53.418Z,23.33
2018-02-25T16:23:19.810Z,22.50
2018-02-25T16:25:46.237Z,32.23
2018-02-25T16:28:12.681Z,24.27
2018-02-25T16:30:39.159Z,27.70
2018-02-25T16:33:05.609Z,31.80
2018-02-25T16:35:32.038Z,31.77
2018-02-25T16:37:58.607Z,23.73
2018-02-25T16:40:25.018Z,26.00
2018-02-25T16:42:51.496Z,29.43
2018-02-25T16:45:17.950Z,29.77
2018-02-25T16:47:44.348Z,26.60
2018-02-25T16:50:10.781Z,24.87
2018-02-25T16:52:37.249Z,32.23
2018-02-25T16:55:03.650Z,26.03
2018-02-25T16:57:30.218Z,28.07
2018-02-25T16:59:56.713Z,30.30
2018-02-25T17:02:23.145Z,25.83
2018-02-25T17:04:49.622Z,24.37
2018-02-25T17:07:16.218Z,24.40
2018-02-25T17:09:42.666Z,27.60
2018-02-25T17:12:09.065Z,27.00
2018-02-25T17:14:35.625Z,24.10
2018-02-25T17:17:02.030Z,23.50
2018-02-25T17:19:28.541Z,25.13
2018-02-25T17:21:54.900Z,24.83
2018-02-25T17:24:21.301Z,24.90
2018-02-25T17:26:47.821Z,22.07
2018-02-25T17:29:14.246Z,23.77
2018-02-25T17:31:40.610Z,27.60
2018-02-25T17:34:07.046Z,23.47
2018-02-25T17:36:33.549Z,21.07
2018-02-25T17:38:59.993Z,22.23
2018-02-25T17:41:26.441Z,23.73
2018-02-25T17:43:52.826Z,23.10
2018-02-25T17:46:19.202Z,23.80
2018-02-25T17:48:45.786Z,26.43
2018-02-25T17:51:12.198Z,22.33
2018-02-25T17:53:38.598Z,20.90
2018-02-25T17:56:05.025Z,25.03
2018-02-25T17:58:31.421Z,24.50
2018-02-25T18:00:57.774Z,23.23
2018-02-25T18:03:24.181Z,20.33
2018-02-25T18:05:53.329Z,21.93
2018-02-25T18:08:20.863Z,22.67
2018-02-25T18:10:50.710Z,22.93
2018-02-25T18:13:18.184Z,23.07
2018-02-25T18:15:44.590Z,24.83
2018-02-25T18:18:12.077Z,23.73
2018-02-25T18:20:39.458Z,26.23
2018-02-25T18:23:05.956Z,23.10
2018-02-25T18:25:32.377Z,22.90
2018-02-25T18:27:59.708Z,21.63
2018-02-25T18:30:34.133Z,23.13
2018-02-25T18:33:09.359Z,21.83
2018-02-25T18:35:37.694Z,21.63
2018-02-25T18:38:05.195Z,22.37
2018-02-25T18:40:31.643Z,21.43
2018-02-25T18:42:58.031Z,20.07
2018-02-25T18:45:25.335Z,18.37
2018-02-25T18:47:51.808Z,20.33
2018-02-25T18:50:19.209Z,19.40
2018-02-25T18:52:45.641Z,20.50
2018-02-25T18:55:14.766Z,21.50
2018-02-25T18:57:41.195Z,21.23
2018-02-25T19:00:08.414Z,22.30
2018-02-25T19:02:35.003Z,22.40
2018-02-25T19:05:04.334Z,21.40
2018-02-25T19:07:31.753Z,22.47
2018-02-25T19:09:59.206Z,21.13
2018-02-25T19:12:25.586Z,19.63
2018-02-25T19:14:53.085Z,19.00
2018-02-25T19:17:19.493Z,19.70
2018-02-25T19:19:56.167Z,18.43
2018-02-25T19:22:24.299Z,19.50
2018-02-25T19:24:51.593Z,21.10
2018-02-25T19:27:18.937Z,21.37
2018-02-25T19:29:45.324Z,22.63
2018-02-25T19:32:17.911Z,20.17
2018-02-25T19:35:02.303Z,20.07
2018-02-25T19:37:36.481Z,21.30
2018-02-25T19:40:24.286Z,22.30
2018-02-25T19:42:53.887Z,23.37
2018-02-25T19:45:22.494Z,25.33
2018-02-25T19:47:50.489Z,24.07
2018-02-25T19:50:18.217Z,22.17
2018-02-25T19:52:56.425Z,20.10
2018-02-25T19:55:30.859Z,22.43
2018-02-25T19:58:00.974Z,24.33
2018-02-25T20:00:31.865Z,26.23
2018-02-25T20:03:04.186Z,27.03
2018-02-25T20:05:35.837Z,25.47
2018-02-25T20:08:07.801Z,21.97
2018-02-25T20:10:37.055Z,23.03
2018-02-25T20:13:03.907Z,24.40
2018-02-25T20:15:35.227Z,22.57
2018-02-25T20:18:05.973Z,24.97
2018-02-25T20:20:33.444Z,21.50
2018-02-25T20:23:03.549Z,23.23
2018-02-25T20:25:43.857Z,23.83
2018-02-25T20:28:11.526Z,23.60
2018-02-25T20:30:40.146Z,23.90
2018-02-25T20:33:11.103Z,25.53
2018-02-25T20:35:38.396Z,22.07
2018-02-25T20:38:04.738Z,22.37
2018-02-25T20:40:34.678Z,23.77
2018-02-25T20:43:10.410Z,20.30
2018-02-25T20:45:52.401Z,22.33
2018-02-25T20:48:18.734Z,20.80
2018-02-25T20:50:45.070Z,23.50
2018-02-25T20:53:13.489Z,24.80
2018-02-25T20:55:41.189Z,22.60
2018-02-25T20:58:07.556Z,22.73
2018-02-25T21:00:35.112Z,23.37
2018-02-25T21:03:01.629Z,22.93
2018-02-25T21:05:27.981Z,23.07
2018-02-25T21:07:54.369Z,23.57
2018-02-25T21:10:20.780Z,20.90
2018-02-25T21:12:47.169Z,23.33
2018-02-25T21:15:13.533Z,24.83
2018-02-25T21:17:39.898Z,22.83
2018-02-25T21:20:06.289Z,22.13
2018-02-25T21:22:32.625Z,21.10
2018-02-25T21:24:58.964Z,22.97
2018-02-25T21:27:25.337Z,23.20
2018-02-25T21:29:51.682Z,22.67
2018-02-25T21:32:18.013Z,22.53
2018-02-25T21:34:44.364Z,21.57
2018-02-25T21:37:10.689Z,23.27
2018-02-25T21:39:37.013Z,23.07
2018-02-25T21:42:03.337Z,24.67
2018-02-25T21:44:29.734Z,24.60
2018-02-25T21:46:56.072Z,24.57
2018-02-25T21:49:22.422Z,22.50
2018-02-25T21:51:48.801Z,26.20
2018-02-25T21:54:21.345Z,24.33
2018-02-25T21:56:53.685Z,23.93
2018-02-25T22:12:42.678Z,23.10
2018-02-25T22:15:09.010Z,24.80
2018-02-25T22:17:35.369Z,22.53
2018-02-25T22:20:01.729Z,25.03
2018-02-25T22:22:28.069Z,24.70
2018-02-25T22:24:54.413Z,26.33
2018-02-25T22:27:20.767Z,29.07
2018-02-25T22:29:47.171Z,27.50
2018-02-25T22:32:13.505Z,27.23
2018-02-25T22:34:39.853Z,24.20
2018-02-25T22:37:06.217Z,25.50
2018-02-25T22:39:32.549Z,24.00
2018-02-25T22:41:58.901Z,21.90
2018-02-25T22:44:25.226Z,22.67
2018-02-25T22:46:51.562Z,24.30
2018-02-25T22:49:17.883Z,24.23
2018-02-25T22:51:44.234Z,25.53
2018-02-25T22:54:10.566Z,24.27
2018-02-25T22:56:36.886Z,23.70
2018-02-25T22:59:03.212Z,23.77
2018-02-25T23:01:29.542Z,23.93
2018-02-25T23:03:55.885Z,23.93
2018-02-25T23:06:22.221Z,23.13
2018-02-25T23:08:48.570Z,24.93
2018-02-25T23:11:14.902Z,22.57
2018-02-25T23:13:41.248Z,23.87
2018-02-25T23:16:07.610Z,26.10
2018-02-25T23:18:33.965Z,24.23
2018-02-25T23:21:00.305Z,24.83
2018-02-25T23:23:26.645Z,24.77
2018-02-25T23:25:52.990Z,23.07
2018-02-25T23:28:19.325Z,24.13
2018-02-25T23:30:45.698Z,23.43
2018-02-25T23:33:12.086Z,22.03
2018-02-25T23:35:38.570Z,22.23
2018-02-25T23:38:04.949Z,20.63
2018-02-25T23:40:31.300Z,23.00
2018-02-25T23:42:57.657Z,22.33
2018-02-25T23:45:23.991Z,24.63
2018-02-25T23:47:50.320Z,25.17
2018-02-25T23:50:16.658Z,24.80
2018-02-25T23:52:42.985Z,21.60
2018-02-25T23:55:09.365Z,22.90
2018-02-25T23:57:35.718Z,24.47
